Patricios, Argentina
Current Conditions -  °F | °C
As of 9:00 AM on Thursday 23 Oct 2014 (Local Time) from SAEZ Reporting Station
Clear Clear  
Wind Chill: 24°   Ceiling: Unl
Heat Index: 24°   Visibility: 6mi
Dew Point: 17°   Wind: 9mph
Humidity: 65%   Direction: 140°SE
Pressure: 30.06"   Gusts: NA
Location:  35.45°S, 60.71°W
Report Text: SAEZ 231200Z 14008KT 110V170 CAVOK 24/17 Q1018
Loading
Personal Weather Stations






























Interactive Weather Map
Tropical Storm Tracking
New forecast layout! Learn more

10-Day Weather Forecast

Advertisements
Track Severe Weather on mobile